Bradenton Beach, Florida
Current Conditions -  °F | °C
As of 10:53 PM on Saturday 22 Nov 2014 (Local Time) from KSRQ Reporting Station
Broken Clouds Broken Clouds  
Wind Chill: 72°   Ceiling: 3600
Heat Index: 72°   Visibility: 10mi
Dew Point: 67°   Wind: 16mph
Humidity: 84%   Direction: 110°ESE
Pressure: 30.04"   Gusts: NA
Location:  27.46°N, 82.7°W
Report Text: KSRQ 230353Z 11014KT 10SM FEW022 SCT030 BKN036 22/19 A3004 RMK AO2 SLP173 T02220194
Loading
Personal Weather Stations






























Interactive Weather Map New forecast layout! Learn more

10-Day Weather Forecast

Advertisements
Track Severe Weather on mobile